Athens, Illinois
Current Conditions -  °F | °C
As of 12:25 AM on Monday 24 Nov 2014 (Local Time) from KSPI Reporting Station
Haze Haze  
Wind Chill: 53°   Ceiling: 200
Heat Index: 53°   Visibility: 2mi
Dew Point: 51°   Wind: 8mph
Humidity: 93%   Direction: 230°SW
Pressure: 29.19"   Gusts: NA
Location:  39.96°N, 89.72°W
Report Text: KSPI 240625Z AUTO 23007KT 2SM BR OVC002 12/11 A2919 RMK AO2 T01170106
Loading
Personal Weather Stations






























Interactive Weather Map New forecast layout! Learn more

10-Day Weather Forecast

Advertisements
Track Severe Weather on mobile